Latest Weather Observations for Cape Nelson

IDV60801

Issued at 6:32 pm EDT Monday 5 December 2022 (issued every 10 minutes, with the page automatically refreshed every 10 minutes)

About weather observations | Map of weather stations | Latest weather observations for VIC | Other Formats
Station Details ID: 090184 Name: CAPE NELSON LIGHTHOUSE Lat: -38.43 Lon: 141.54 Height: 45.4 m
Data from the previous 72 hours. | See also: Recent months at Cape Nelson
Date/Time
EDT
Temp
°C
App
Temp
°C
Dew
Point
°C
Rel
Hum
%
Delta-T
°C
Wind Press
QNH
hPa
Press
MSL
hPa
Rain since
9am
mm
Dir  Spd
km/h
Gust
km/h
Spd
kts
Gust
kts
05/06:30pm 13.3 7.4 5.9 61 3.5 S 26 35 14 19 1016.7 1016.6 0.0
05/06:00pm 13.4 7.1 5.8 60 3.6 S 28 41 15 22 1016.7 1016.6 0.0
05/05:30pm 13.8 7.7 6.4 61 3.6 S 28 39 15 21 1016.7 1016.6 0.0
05/05:00pm 14.2 7.5 5.8 57 4.0 S 30 39 16 21 1016.6 1016.5 0.0
05/04:30pm 14.1 7.9 6.2 59 3.8 S 28 39 15 21 1016.7 1016.6 0.0
05/04:00pm 14.2 7.3 6.3 59 3.8 S 32 41 17 22 1016.8 1016.7 0.0
05/03:30pm 14.1 7.3 6.7 61 3.6 S 32 46 17 25 1016.9 1016.8 0.0
05/03:00pm 14.5 9.2 8.5 67 3.0 SSW 26 37 14 20 1016.8 1016.7 0.0
05/02:30pm 14.3 8.2 8.3 67 3.0 SSW 30 44 16 24 1016.9 1016.8 0.0
05/02:00pm 14.8 8.9 7.4 61 3.7 S 28 39 15 21 1016.9 1016.8 0.0
05/01:30pm 14.9 8.6 7.5 61 3.7 S 30 39 16 21 1016.9 1016.8 0.0
05/01:00pm 14.7 7.1 7.5 62 3.6 S 37 46 20 25 1016.7 1016.6 0.0
05/12:30pm 14.8 8.0 7.1 60 3.8 S 32 43 17 23 1016.5 1016.4 0.0
05/12:00pm 14.5 7.6 7.3 62 3.5 S 33 44 18 24 1016.4 1016.3 0.0
05/11:30am 14.1 7.4 7.4 64 3.3 S 32 48 17 26 1016.2 1016.1 0.0
05/11:00am 14.1 7.0 8.1 67 3.0 S 35 48 19 26 1015.8 1015.7 0.0
05/10:30am 14.6 7.2 8.5 67 3.1 S 37 50 20 27 1015.4 1015.3 0.0
05/10:00am 13.5 6.5 8.6 72 2.5 S 35 50 19 27 1015.3 1015.2 0.0
05/09:30am 12.7 5.2 9.3 80 1.7 S 39 50 21 27 1015.2 1015.1 0.0
05/09:00am 12.7 4.9 9.9 83 1.4 S 41 56 22 30 1015.0 1014.9 0.4
05/08:30am 13.1 5.5 10.5 84 1.4 S 41 52 22 28 1014.7 1014.6 0.4
05/08:20am 12.5 5.1 10.0 85 1.3 S 39 57 21 31 1014.6 1014.5 0.4
05/08:00am 12.3 4.3 10.5 89 0.9 S 43 52 23 28 1014.4 1014.3 0.4
05/07:30am 13.0 5.6 11.1 88 1.0 S 41 54 22 29 1013.9 1013.8 0.4
05/07:00am 13.0 6.0 11.2 89 1.0 S 39 56 21 30 1013.7 1013.6 0.2
05/06:42am 13.4 7.1 11.1 86 1.2 S 35 54 19 29 1013.5 1013.4 0.0
05/06:30am 13.2 5.3 10.9 86 1.2 S 43 59 23 32 1013.4 1013.3 0.0
05/06:24am 13.6 7.0 11.3 86 1.2 S 37 56 20 30 1013.3 1013.2 0.0
05/06:00am 13.4 6.0 11.1 86 1.2 S 41 54 22 29 1013.1 1013.0 0.0
05/05:30am 13.9 6.9 11.2 84 1.4 S 39 54 21 29 1012.8 1012.7 0.0
05/05:00am 13.9 6.9 11.1 83 1.5 S 39 56 21 30 1012.2 1012.1 0.0
05/04:55am 14.2 7.6 11.5 84 1.4 S 37 56 20 30 1012.2 1012.1 0.0
05/04:30am 14.8 7.8 11.2 79 1.9 S 39 54 21 29 1011.8 1011.7 0.0
05/04:10am 14.6 8.8 11.4 81 1.7 S 33 52 18 28 1011.7 1011.6 0.0
05/04:00am 14.7 8.1 11.5 81 1.7 S 37 50 20 27 1011.7 1011.6 0.0
05/03:30am 14.6 8.6 10.2 75 2.3 S 32 44 17 24 1011.6 1011.5 0.0
05/03:01am 14.5 8.4 10.3 76 2.2 S 33 57 18 31 1011.4 1011.3 0.0
05/03:00am 14.6 8.7 10.6 77 2.1 S 32 48 17 26 1011.4 1011.3 0.0
05/02:39am 14.5 7.5 10.1 75 2.3 S 37 57 20 31 1011.2 1011.1 0.0
05/02:30am 14.5 6.5 10.3 76 2.2 SSW 43 57 23 31 1011.0 1010.9 0.0
05/02:00am 14.5 7.7 11.8 84 1.5 SSW 39 54 21 29 1010.8 1010.7 0.0
05/01:45am 14.5 7.8 12.2 86 1.2 SSW 39 57 21 31 1010.8 1010.7 0.0
05/01:30am 14.4 7.0 12.6 89 1.0 SSW 43 57 23 31 1010.7 1010.6 0.0
05/01:00am 14.5 8.0 13.0 91 0.8 SSW 39 54 21 29 1010.4 1010.3 0.0
05/12:30am 14.9 9.3 13.4 91 0.8 SSW 35 54 19 29 1010.2 1010.1 0.0
05/12:00am 15.2 10.7 13.7 91 0.8 S 30 50 16 27 1009.6 1009.5 0.0
 
Date/Time
EDT
Temp
°C
App
Temp
°C
Dew
Point
°C
Rel
Hum
%
Delta-T
°C
Wind Press
QNH
hPa
Press
MSL
hPa
Rain since
9am
mm
Dir  Spd
km/h
Gust
km/h
Spd
kts
Gust
kts
04/11:52pm 15.2 11.1 13.7 91 0.8 S 28 50 15 27 1009.7 1009.6 0.0
04/11:30pm 15.7 13.2 14.1 90 0.9 SSE 20 35 11 19 1009.4 1009.3 0.0
04/11:00pm 15.9 13.7 14.3 90 0.9 ENE 19 32 10 17 1009.1 1009.0 0.0
04/10:30pm 15.7 13.2 14.2 91 0.9 NNW 20 35 11 19 1009.0 1008.9 0.0
04/10:15pm 15.7 11.3 14.2 91 0.9 WNW 30 48 16 26 1008.7 1008.6 0.0
04/10:00pm 15.7 10.0 14.1 90 0.9 W 37 50 20 27 1008.7 1008.6 0.0
04/09:30pm 15.9 11.9 14.1 89 1.0 W 28 44 15 24 1008.4 1008.3 0.0
04/09:00pm 16.0 11.6 14.0 88 1.1 WNW 30 44 16 24 1008.2 1008.1 0.0
04/08:45pm 16.2 11.2 14.0 87 1.2 WNW 33 52 18 28 1008.0 1007.9 0.0
04/08:30pm 16.3 10.9 14.0 86 1.3 WNW 35 46 19 25 1007.8 1007.7 0.0
04/08:00pm 16.4 11.1 14.1 86 1.3 WNW 35 48 19 26 1007.9 1007.8 0.0
04/07:30pm 16.4 11.5 14.2 87 1.3 WNW 33 43 18 23 1007.6 1007.5 0.0
04/07:00pm 16.8 12.0 14.6 87 1.3 WNW 33 46 18 25 1007.1 1007.0 0.0
04/06:30pm 17.3 12.2 14.8 85 1.4 WNW 35 48 19 26 1006.9 1006.8 0.0
04/06:00pm 19.0 15.3 15.1 78 2.3 WNW 28 37 15 20 1006.9 1006.8 0.0
04/05:30pm 19.7 16.2 14.5 72 3.0 WNW 26 33 14 18 1007.0 1006.9 0.0
04/05:00pm 21.1 18.2 15.0 68 3.6 WNW 24 33 13 18 1007.1 1007.0 0.0
04/04:30pm 20.5 16.4 13.7 65 3.9 WNW 28 39 15 21 1007.1 1007.0 0.0
04/04:00pm 23.7 19.4 12.0 47 6.7 NW 26 35 14 19 1006.9 1006.8 0.0
04/03:30pm 25.9 21.0 10.1 37 8.8 NW 26 35 14 19 1007.3 1007.2 0.0
04/03:00pm 27.1 22.0 12.0 39 8.7 NW 30 39 16 21 1007.2 1007.1 0.0
04/02:30pm 24.3 20.8 13.5 51 6.3 NW 24 33 13 18 1007.7 1007.6 0.0
04/02:00pm 24.6 20.0 12.2 46 7.1 NW 28 35 15 19 1008.3 1008.2 0.0
04/01:30pm 24.3 20.7 14.1 53 6.0 NW 26 39 14 21 1008.8 1008.7 0.0
04/01:00pm 23.6 20.6 13.8 54 5.7 WNW 22 32 12 17 1008.9 1008.8 0.0
04/12:30pm 26.1 23.5 13.9 47 7.2 WNW 20 28 11 15 1008.8 1008.7 0.0
04/12:00pm 30.0 26.0 10.5 30 11.2 WNW 22 30 12 16 1008.5 1008.4 0.0
04/11:30am 29.7 25.1 9.8 29 11.2 NW 24 35 13 19 1008.7 1008.6 0.0
04/11:00am 28.6 24.0 9.8 31 10.6 NW 24 32 13 17 1009.0 1008.9 0.0
04/10:30am 28.3 24.5 9.1 30 10.6 NW 19 26 10 14 1009.1 1009.0 0.0
04/10:00am 29.3 26.4 10.9 32 10.6 NW 17 24 9 13 1009.1 1009.0 0.0
04/09:30am 25.7 23.5 10.7 39 8.4 WNW 13 20 7 11 1009.5 1009.4 0.0
04/09:00am 25.3 22.5 11.5 42 7.8 NW 17 22 9 12 1009.5 1009.4 0.0
04/08:30am 25.8 21.0 8.8 34 9.2 NNW 24 35 13 19 1009.1 1009.0 0.0
04/08:00am 23.7 19.8 9.3 40 7.8 N 20 28 11 15 1008.5 1008.4 0.0
04/07:30am 21.4 19.1 10.6 50 5.9 N 13 19 7 10 1009.0 1008.9 0.0
04/07:00am 19.8 17.2 10.8 56 4.9 NW 15 24 8 13 1009.5 1009.4 0.0
04/06:30am 18.0 14.9 10.4 61 4.1 N 17 24 9 13 1008.6 1008.5 0.0
04/06:00am 17.1 16.2 10.7 66 3.4 S 6 11 3 6 1009.2 1009.1 0.0
04/05:30am 17.3 14.7 9.5 60 4.1 NNE 13 17 7 9 1008.9 1008.8 0.0
04/05:00am 19.3 15.7 10.0 55 5.0 NNE 19 28 10 15 1008.9 1008.8 0.0
04/04:30am 19.1 14.4 9.3 53 5.2 NNE 24 32 13 17 1009.0 1008.9 0.0
04/04:00am 19.2 14.2 7.9 48 5.8 NE 24 30 13 16 1009.2 1009.1 0.0
04/03:30am 18.9 13.5 6.4 44 6.2 NE 24 32 13 17 1009.6 1009.5 0.0
04/03:00am 19.0 14.1 5.1 40 6.8 NE 20 30 11 16 1010.2 1010.1 0.0
04/02:30am 18.7 13.6 5.9 43 6.3 NE 22 30 12 16 1010.9 1010.8 0.0
04/02:00am 18.0 13.9 8.6 54 4.9 NE 20 28 11 15 1011.2 1011.1 0.0
04/01:30am 17.8 13.8 9.2 57 4.5 NE 20 26 11 14 1011.8 1011.7 0.0
04/01:00am 17.3 13.4 9.5 60 4.1 NE 20 24 11 13 1012.3 1012.2 0.0
04/12:30am 16.8 13.4 9.2 61 3.9 NE 17 20 9 11 1013.0 1012.9 0.0
04/12:00am 16.5 13.3 9.9 65 3.5 NE 17 19 9 10 1013.2 1013.1 0.0
 
Date/Time
EDT
Temp
°C
App
Temp
°C
Dew
Point
°C
Rel
Hum
%
Delta-T
°C
Wind Press
QNH
hPa
Press
MSL
hPa
Rain since
9am
mm
Dir  Spd
km/h
Gust
km/h
Spd
kts
Gust
kts
03/11:30pm 17.0 14.4 11.9 72 2.8 NE 17 19 9 10 1013.4 1013.3 0.0
03/11:00pm 16.9 14.2 11.6 71 2.9 NE 17 19 9 10 1013.5 1013.4 0.0
03/10:30pm 16.9 14.2 11.6 71 2.9 NE 17 19 9 10 1013.5 1013.4 0.0
03/10:00pm 17.5 15.1 11.5 68 3.3 NE 15 22 8 12 1013.5 1013.4 0.0
03/09:30pm 17.6 15.8 12.1 70 3.0 ENE 13 17 7 9 1013.3 1013.2 0.0
03/09:00pm 17.7 15.9 12.2 70 3.0 ENE 13 19 7 10 1013.1 1013.0 0.0
03/08:30pm 18.2 16.4 12.2 68 3.3 ENE 13 17 7 9 1013.2 1013.1 0.0
03/08:00pm 19.2 17.5 12.5 65 3.8 ENE 13 19 7 10 1013.2 1013.1 0.0
03/07:30pm 20.2 18.4 12.2 60 4.5 ENE 13 17 7 9 1013.2 1013.1 0.0
03/07:00pm 20.7 18.8 11.9 57 4.9 E 13 17 7 9 1013.0 1012.9 0.0
03/06:30pm 20.8 19.5 13.7 64 4.1 ENE 13 17 7 9 1012.9 1012.8 0.0
03/06:00pm 21.1 20.0 14.3 65 4.0 ENE 13 17 7 9 1013.1 1013.0 0.0
03/05:30pm 21.4 20.1 13.6 61 4.5 E 13 15 7 8 1013.3 1013.2 0.0
03/05:00pm 21.6 20.5 13.0 58 4.9 E 11 15 6 8 1013.4 1013.3 0.0
03/04:30pm 21.6 21.0 14.5 64 4.2 ESE 11 15 6 8 1013.5 1013.4 0.0
03/04:00pm 21.9 20.3 12.7 56 5.2 ESE 13 17 7 9 1013.6 1013.5 0.0
03/03:30pm 21.7 20.7 13.3 59 4.8 SE 11 15 6 8 1013.8 1013.7 0.0
03/03:00pm 22.4 20.9 11.8 51 6.0 ESE 11 13 6 7 1013.9 1013.8 0.0
03/02:30pm 21.7 21.3 15.1 66 3.9 E 11 15 6 8 1014.1 1014.0 0.0
03/02:00pm 20.9 20.4 14.8 68 3.6 ESE 11 15 6 8 1014.4 1014.3 0.0
03/01:30pm 20.1 19.9 15.7 76 2.6 SE 11 13 6 7 1014.5 1014.4 0.0
03/01:00pm 20.2 19.6 15.6 75 2.7 SSE 13 15 7 8 1014.8 1014.7 0.0
03/12:30pm 20.2 20.3 15.4 74 2.8 SSE 9 11 5 6 1014.9 1014.8 0.0
03/12:00pm 20.2 20.1 15.0 72 3.1 SSE 9 11 5 6 1015.0 1014.9 0.0
03/11:30am 20.5 20.4 13.9 66 3.8 S 7 9 4 5 1015.0 1014.9 0.0
03/11:00am 19.8 19.3 12.8 64 4.0 SW 7 9 4 5 1015.0 1014.9 0.0
03/10:30am 20.7 20.8 14.4 67 3.7 SSE 7 9 4 5 1015.1 1015.0 0.0
03/10:00am 21.6 21.9 14.5 64 4.2 SSE 6 9 3 5 1015.2 1015.1 0.0
03/09:30am 20.5 21.0 15.1 71 3.2 S 6 9 3 5 1015.1 1015.0 0.0
03/09:00am 19.9 19.7 13.1 65 3.9 NNE 6 7 3 4 1014.9 1014.8 0.0
03/08:30am 21.4 22.1 15.5 69 3.5 NNE 6 9 3 5 1014.6 1014.5 0.0
03/08:00am 19.0 19.1 14.5 75 2.6 NE 7 11 4 6 1014.4 1014.3 0.0
03/07:30am 17.5 18.5 14.2 81 1.9 NE 2 7 1 4 1014.2 1014.1 0.0
03/07:00am 15.6 15.3 13.3 86 1.3 NE 7 9 4 5 1014.1 1014.0 0.0
03/06:30am 13.3 12.1 11.5 89 1.0 NE 9 13 5 7 1014.0 1013.9 0.0
03/06:00am 12.2 10.7 10.4 89 0.9 NE 9 11 5 6 1013.9 1013.8 0.0
03/05:30am 12.3 10.7 10.2 87 1.1 NNE 9 13 5 7 1013.7 1013.6 0.0
03/05:00am 12.6 10.3 10.3 86 1.2 NNE 13 17 7 9 1013.5 1013.4 0.0
03/04:30am 12.7 10.3 10.1 84 1.3 NNE 13 15 7 8 1013.5 1013.4 0.0
03/04:00am 13.6 10.9 10.2 80 1.8 NNE 15 20 8 11 1013.6 1013.5 0.0
03/03:30am 13.9 10.5 10.5 80 1.8 NNE 19 22 10 12 1013.8 1013.7 0.0
03/03:00am 13.3 10.1 10.1 81 1.7 NNE 17 20 9 11 1014.1 1014.0 0.0
03/02:30am 12.5 9.9 10.6 88 1.0 NNE 15 19 8 10 1014.5 1014.4 0.0
03/02:00am 13.2 10.6 12.1 93 0.6 NNE 17 22 9 12 1014.8 1014.7 0.0
03/01:30am 13.5 11.1 12.6 94 0.5 NNE 17 22 9 12 1015.1 1015.0 0.0
03/01:00am 13.7 11.7 12.8 94 0.5 NE 15 20 8 11 1015.3 1015.2 0.0
03/12:30am 13.6 11.5 12.5 93 0.6 NE 15 19 8 10 1015.6 1015.5 0.0
03/12:00am 13.5 11.3 12.2 92 0.7 NE 15 17 8 9 1015.8 1015.7 0.0
 
Date/Time
EDT
Temp
°C
App
Temp
°C
Dew
Point
°C
Rel
Hum
%
Delta-T
°C
Wind Press
QNH
hPa
Press
MSL
hPa
Rain since
9am
mm
Dir  Spd
km/h
Gust
km/h
Spd
kts
Gust
kts
02/11:30pm 13.7 11.5 12.1 90 0.9 NE 15 19 8 10 1015.9 1015.8 0.0
02/11:00pm 14.3 11.3 12.5 89 1.0 ENE 20 26 11 14 1016.1 1016.0 0.0
02/10:30pm 14.3 11.8 12.2 87 1.1 ENE 17 24 9 13 1016.4 1016.3 0.0
02/10:00pm 14.2 11.1 11.7 85 1.3 E 19 26 10 14 1016.4 1016.3 0.0
02/09:30pm 14.1 10.9 11.4 84 1.4 E 19 24 10 13 1016.2 1016.1 0.0
02/09:00pm 14.1 10.9 11.1 82 1.6 E 19 24 10 13 1016.2 1016.1 0.0
02/08:30pm 14.4 10.9 11.0 80 1.8 E 20 26 11 14 1016.2 1016.1 0.0
02/08:00pm 14.9 11.5 11.1 78 2.0 E 20 26 11 14 1016.2 1016.1 0.0
02/07:30pm 15.4 12.0 11.2 76 2.2 ESE 20 26 11 14 1016.1 1016.0 0.0
02/07:00pm 15.2 11.3 10.8 75 2.3 ESE 22 26 12 14 1015.9 1015.8 0.0

Other formats

Comma delimited format used in spreadsheet applications
http://www.bom.gov.au/fwo/IDV60801/IDV60801.94826.axf

JavaScript Object Notation format (JSON) in row-major order
http://www.bom.gov.au/fwo/IDV60801/IDV60801.94826.json

Data quality

Most of these data are generated automatically and are frequently updated. Quality checks on data are not normally performed. It is possible for incorrect values to appear. Refer to information at About Latest Weather Observations and please check the disclaimer before using these data.